createdAt,value
2019-03-04T00:01:49.402Z,91.94
2019-03-04T00:04:18.693Z,92.00
2019-03-04T00:06:48.012Z,91.96
2019-03-04T00:09:17.340Z,92.10
2019-03-04T00:11:46.677Z,92.26
2019-03-04T00:14:16.010Z,92.48
2019-03-04T00:16:45.527Z,92.62
2019-03-04T00:19:14.789Z,92.62
2019-03-04T00:21:44.134Z,92.75
2019-03-04T00:24:13.675Z,92.78
2019-03-04T00:26:42.954Z,92.96
2019-03-04T00:29:12.245Z,93.09
2019-03-04T00:31:41.816Z,93.16
2019-03-04T00:34:11.093Z,93.24
2019-03-04T00:36:40.422Z,93.24
2019-03-04T00:39:11.768Z,93.24
2019-03-04T00:41:41.002Z,93.38
2019-03-04T00:44:10.290Z,93.43
2019-03-04T00:46:39.796Z,93.51
2019-03-04T00:49:09.158Z,93.59
2019-03-04T00:51:38.472Z,93.29
2019-03-04T00:54:07.921Z,93.05
2019-03-04T00:56:37.282Z,92.96
2019-03-04T00:59:06.641Z,93.00
2019-03-04T01:01:36.028Z,93.11
2019-03-04T01:04:05.337Z,93.29
2019-03-04T01:06:34.652Z,93.28
2019-03-04T01:09:04.311Z,93.39
2019-03-04T01:11:33.594Z,93.22
2019-03-04T01:14:02.883Z,93.28
2019-03-04T01:16:34.218Z,93.45
2019-03-04T01:19:03.562Z,93.51
2019-03-04T01:21:32.919Z,93.42
2019-03-04T01:24:02.370Z,93.51
2019-03-04T01:26:31.689Z,93.67
2019-03-04T01:29:00.957Z,93.58
2019-03-04T01:31:30.428Z,93.72
2019-03-04T01:33:59.692Z,93.92
2019-03-04T01:36:29.016Z,93.83
2019-03-04T01:38:58.471Z,93.94
2019-03-04T01:41:27.778Z,93.68
2019-03-04T01:43:57.109Z,93.70
2019-03-04T01:46:26.465Z,93.88
2019-03-04T01:48:55.740Z,93.70
2019-03-04T01:51:25.033Z,93.75
2019-03-04T01:53:54.375Z,93.84
2019-03-04T01:56:23.635Z,94.01
2019-03-04T01:58:52.927Z,94.09
2019-03-04T02:01:22.321Z,93.93
2019-03-04T02:03:51.665Z,93.77
2019-03-04T02:06:20.968Z,93.93
2019-03-04T02:08:50.214Z,93.99
2019-03-04T02:11:19.522Z,94.23
2019-03-04T02:13:48.897Z,94.27
2019-03-04T02:16:18.376Z,94.47
2019-03-04T02:18:47.666Z,94.35
2019-03-04T02:21:16.960Z,94.34
2019-03-04T02:23:46.397Z,94.45
2019-03-04T02:26:32.301Z,94.35
2019-03-04T02:29:01.712Z,94.34
2019-03-04T02:31:31.067Z,94.51
2019-03-04T02:34:00.472Z,94.64
2019-03-04T02:36:30.140Z,94.78
2019-03-04T02:38:59.434Z,94.70
2019-03-04T02:41:28.667Z,94.51
2019-03-04T02:43:57.966Z,94.41
2019-03-04T02:46:27.267Z,94.33
2019-03-04T02:48:56.611Z,94.41
2019-03-04T02:51:25.957Z,94.56
2019-03-04T02:53:55.250Z,94.53
2019-03-04T02:56:24.594Z,94.61
2019-03-04T02:58:53.980Z,94.53
2019-03-04T03:01:23.295Z,94.72
2019-03-04T03:03:52.552Z,95.16
2019-03-04T03:06:22.036Z,95.12
2019-03-04T03:08:51.422Z,95.19
2019-03-04T03:11:20.750Z,95.17
2019-03-04T03:13:50.252Z,95.28
2019-03-04T03:16:19.601Z,95.16
2019-03-04T03:18:48.875Z,95.13
2019-03-04T03:21:18.109Z,95.19
2019-03-04T03:23:47.380Z,95.32
2019-03-04T03:26:16.705Z,95.18
2019-03-04T03:28:46.485Z,95.12
2019-03-04T03:31:15.785Z,95.04
2019-03-04T03:33:45.031Z,95.13
2019-03-04T03:36:14.466Z,95.18
2019-03-04T03:38:43.821Z,95.35
2019-03-04T03:41:13.139Z,95.48
2019-03-04T03:43:42.701Z,95.50
2019-03-04T03:46:12.016Z,95.47
2019-03-04T03:48:41.280Z,95.51
2019-03-04T03:51:10.814Z,95.64
2019-03-04T03:53:39.995Z,95.58
2019-03-04T03:56:09.294Z,95.57
2019-03-04T03:58:39.002Z,95.51
2019-03-04T04:01:08.295Z,95.68
2019-03-04T04:03:37.607Z,95.65
2019-03-04T04:06:07.188Z,95.67
2019-03-04T04:08:36.514Z,95.79
2019-03-04T04:11:05.768Z,95.76
2019-03-04T04:13:35.115Z,95.90
2019-03-04T04:16:04.430Z,95.99
2019-03-04T04:18:33.749Z,95.93
2019-03-04T04:21:03.138Z,96.18
2019-03-04T04:23:32.472Z,96.17
2019-03-04T04:26:01.772Z,96.35
2019-03-04T04:28:32.099Z,96.33
2019-03-04T04:31:01.466Z,96.35
2019-03-04T04:33:30.759Z,96.33
2019-03-04T04:36:00.110Z,96.30
2019-03-04T04:38:29.439Z,96.32
2019-03-04T04:40:58.718Z,96.47
2019-03-04T04:43:28.053Z,96.65
2019-03-04T04:45:57.382Z,96.66
2019-03-04T04:48:26.672Z,96.73
2019-03-04T04:50:56.017Z,96.79
2019-03-04T04:53:25.348Z,96.89
2019-03-04T04:55:54.682Z,97.01
2019-03-04T04:58:23.949Z,97.14
2019-03-04T05:00:53.197Z,97.18
2019-03-04T05:03:22.588Z,97.22
2019-03-04T05:05:52.107Z,97.29
2019-03-04T05:08:21.452Z,97.36
2019-03-04T05:10:50.773Z,97.39
2019-03-04T05:13:20.123Z,97.37
2019-03-04T05:15:49.429Z,97.29
2019-03-04T05:18:18.699Z,97.29
2019-03-04T05:20:48.167Z,97.32
2019-03-04T05:23:17.497Z,97.35
2019-03-04T05:25:46.787Z,97.48
2019-03-04T05:28:16.171Z,97.52
2019-03-04T05:30:45.505Z,97.50
2019-03-04T05:33:14.841Z,97.50
2019-03-04T05:35:44.177Z,97.48
2019-03-04T05:38:13.494Z,97.48
2019-03-04T05:40:42.777Z,97.48
2019-03-04T05:43:12.140Z,97.42
2019-03-04T05:45:41.452Z,97.49
2019-03-04T05:48:10.789Z,97.49
2019-03-04T05:50:40.131Z,97.41
2019-03-04T05:53:09.506Z,97.35
2019-03-04T05:55:38.790Z,97.37
2019-03-04T05:58:08.127Z,97.30
2019-03-04T06:00:40.112Z,97.28
2019-03-04T06:03:09.996Z,97.32
2019-03-04T06:05:39.348Z,97.27
2019-03-04T06:08:09.414Z,97.10
2019-03-04T06:10:38.777Z,96.88
2019-03-04T06:13:08.077Z,96.70
2019-03-04T06:15:37.323Z,96.51
2019-03-04T06:18:06.711Z,96.48
2019-03-04T06:20:36.108Z,96.12
2019-03-04T06:23:05.451Z,95.62
2019-03-04T06:25:34.832Z,95.50
2019-03-04T06:28:04.087Z,94.95
2019-03-04T06:30:33.552Z,94.54
2019-03-04T06:33:03.092Z,94.33
2019-03-04T06:35:32.395Z,93.81
2019-03-04T06:38:01.768Z,92.81
2019-03-04T06:40:31.078Z,91.43
2019-03-04T06:43:00.403Z,91.25
2019-03-04T06:45:29.742Z,91.65
2019-03-04T06:47:59.098Z,91.27
2019-03-04T06:50:51.062Z,91.91
2019-03-04T06:53:24.596Z,92.11
2019-03-04T06:56:08.989Z,92.25
2019-03-04T06:58:41.067Z,92.03
2019-03-04T07:01:17.607Z,91.76
2019-03-04T07:04:01.845Z,91.86
2019-03-04T07:06:31.168Z,91.58
2019-03-04T07:09:15.547Z,91.45
2019-03-04T07:11:45.984Z,91.18
2019-03-04T07:14:15.299Z,91.01
2019-03-04T07:16:45.258Z,91.51
2019-03-04T07:19:19.047Z,91.71
2019-03-04T07:21:48.726Z,91.63
2019-03-04T07:24:18.060Z,91.84
2019-03-04T07:26:47.470Z,92.35
2019-03-04T07:29:16.838Z,92.81
2019-03-04T07:31:46.121Z,92.48
2019-03-04T07:34:15.486Z,92.06
2019-03-04T07:36:44.888Z,92.40
2019-03-04T07:39:18.419Z,92.12
2019-03-04T07:41:49.449Z,92.27
2019-03-04T07:44:18.733Z,92.21
2019-03-04T07:46:48.038Z,92.36
2019-03-04T07:49:17.440Z,92.69
2019-03-04T07:51:46.783Z,92.69
2019-03-04T07:54:16.104Z,92.61
2019-03-04T07:56:45.387Z,92.36
2019-03-04T07:59:14.641Z,93.01
2019-03-04T08:01:44.060Z,93.28
2019-03-04T08:04:13.429Z,93.14
2019-03-04T08:06:42.686Z,93.55
2019-03-04T08:09:55.564Z,93.70
2019-03-04T08:12:54.721Z,93.57
2019-03-04T08:15:24.106Z,93.28
2019-03-04T08:17:53.479Z,92.72
2019-03-04T08:20:22.824Z,92.53
2019-03-04T08:22:52.050Z,92.30
2019-03-04T08:25:21.315Z,91.64
2019-03-04T08:27:50.626Z,91.77
2019-03-04T08:30:21.901Z,91.55
2019-03-04T08:32:51.196Z,90.99
2019-03-04T08:35:20.671Z,91.08
2019-03-04T08:37:50.152Z,90.89
2019-03-04T08:40:19.702Z,91.08
2019-03-04T08:42:49.055Z,91.55
2019-03-04T08:45:20.120Z,91.90
2019-03-04T08:47:49.427Z,92.17
2019-03-04T08:50:18.910Z,92.52
2019-03-04T08:52:48.347Z,92.15
2019-03-04T08:55:17.873Z,92.14
2019-03-04T08:57:47.193Z,92.22
2019-03-04T09:00:19.104Z,91.85
2019-03-04T09:02:48.532Z,90.70
2019-03-04T09:05:17.823Z,89.80
2019-03-04T09:07:47.528Z,89.45
2019-03-04T09:10:27.883Z,88.86
2019-03-04T09:12:57.410Z,88.08
2019-03-04T09:15:26.712Z,89.06
2019-03-04T09:17:55.984Z,88.66
2019-03-04T09:20:25.709Z,89.12
2019-03-04T09:22:55.465Z,89.71
2019-03-04T09:25:43.266Z,89.61
2019-03-04T09:28:12.561Z,89.41
2019-03-04T09:30:41.854Z,89.50
2019-03-04T09:33:11.159Z,89.67
2019-03-04T09:35:40.427Z,89.36
2019-03-04T09:38:09.678Z,88.79
2019-03-04T09:40:39.533Z,89.06
2019-03-04T09:43:08.894Z,87.84
2019-03-04T09:45:39.347Z,87.22
2019-03-04T09:48:09.011Z,86.86
2019-03-04T09:50:38.312Z,86.89
2019-03-04T09:53:07.771Z,87.38
2019-03-04T09:55:37.344Z,87.22
2019-03-04T09:58:06.621Z,87.06
2019-03-04T10:01:13.063Z,87.94
2019-03-04T10:04:28.886Z,87.00
2019-03-04T10:07:19.456Z,84.54
2019-03-04T10:10:28.628Z,81.71
2019-03-04T10:13:49.952Z,80.15
2019-03-04T10:16:27.499Z,79.01
2019-03-04T10:19:52.431Z,75.50
2019-03-04T10:22:47.069Z,76.20
2019-03-04T10:25:41.177Z,77.58
2019-03-04T10:29:03.229Z,78.73
2019-03-04T10:31:57.627Z,79.66
2019-03-04T10:34:56.196Z,81.25
2019-03-04T10:38:02.719Z,80.10
2019-03-04T10:40:51.599Z,82.72
2019-03-04T10:44:00.542Z,80.56
2019-03-04T10:46:58.734Z,81.43
2019-03-04T10:49:29.712Z,84.68
2019-03-04T10:51:58.959Z,83.60
2019-03-04T10:54:28.229Z,83.41
2019-03-04T10:56:57.544Z,81.89
2019-03-04T10:59:26.882Z,83.49
2019-03-04T11:01:56.183Z,84.16
2019-03-04T11:04:25.639Z,83.08
2019-03-04T11:06:55.090Z,82.72
2019-03-04T11:09:24.348Z,83.85
2019-03-04T11:11:53.626Z,84.47
2019-03-04T11:14:22.903Z,84.69
2019-03-04T11:16:52.145Z,85.52
2019-03-04T11:19:21.532Z,86.98
2019-03-04T11:21:50.853Z,87.79
2019-03-04T11:24:20.373Z,88.51
2019-03-04T11:26:49.706Z,89.27
2019-03-04T11:29:18.993Z,89.88
2019-03-04T11:31:48.280Z,90.33
2019-03-04T11:34:17.642Z,90.39
2019-03-04T11:36:46.912Z,90.21
2019-03-04T11:39:22.593Z,90.72
2019-03-04T11:41:51.864Z,91.17
2019-03-04T11:44:21.204Z,90.86
2019-03-04T11:46:50.734Z,90.74
2019-03-04T11:49:20.051Z,90.15
2019-03-04T11:51:49.402Z,90.49
2019-03-04T11:54:18.777Z,90.55
2019-03-04T11:56:48.092Z,90.29
2019-03-04T11:59:17.340Z,89.60
2019-03-04T12:01:49.138Z,89.76
2019-03-04T12:04:18.440Z,89.15
2019-03-04T12:06:47.719Z,88.30
2019-03-04T12:09:17.227Z,88.39
2019-03-04T12:11:46.603Z,88.16
2019-03-04T12:14:15.937Z,84.72
2019-03-04T12:16:45.295Z,84.32
2019-03-04T12:19:14.540Z,85.17
2019-03-04T12:21:43.865Z,84.49
2019-03-04T12:24:13.173Z,84.48
2019-03-04T12:26:43.964Z,82.01
2019-03-04T12:29:13.357Z,80.96
2019-03-04T12:32:05.446Z,82.71
2019-03-04T12:34:34.856Z,82.74
2019-03-04T12:37:04.236Z,83.09
2019-03-04T12:39:33.615Z,83.02
2019-03-04T12:42:02.874Z,82.22
2019-03-04T12:44:32.138Z,82.85
2019-03-04T12:47:01.473Z,83.65
2019-03-04T12:49:30.775Z,83.11
2019-03-04T12:52:00.204Z,83.05
2019-03-04T12:54:29.630Z,82.39
2019-03-04T12:56:58.914Z,82.39
2019-03-04T12:59:28.161Z,82.14
2019-03-04T13:01:57.486Z,82.51
2019-03-04T13:04:26.848Z,83.13
2019-03-04T13:06:56.133Z,83.27
2019-03-04T13:09:25.574Z,83.42
2019-03-04T13:11:54.864Z,83.74
2019-03-04T13:14:24.121Z,84.03
2019-03-04T13:16:53.392Z,84.36
2019-03-04T13:19:22.729Z,84.63
2019-03-04T13:21:52.082Z,85.29
2019-03-04T13:24:21.621Z,85.32
2019-03-04T13:26:51.011Z,84.50
2019-03-04T13:29:20.290Z,84.52
2019-03-04T13:31:49.764Z,85.98
2019-03-04T13:34:19.025Z,85.76
2019-03-04T13:36:48.305Z,86.88
2019-03-04T13:39:17.878Z,86.46
2019-03-04T13:41:47.195Z,86.54
2019-03-04T13:44:16.533Z,86.13
2019-03-04T13:46:45.910Z,86.07
2019-03-04T13:49:15.170Z,86.62
2019-03-04T13:51:44.494Z,85.71
2019-03-04T13:54:13.932Z,85.53
2019-03-04T13:56:43.170Z,85.29
2019-03-04T13:59:12.475Z,85.03
2019-03-04T14:01:41.834Z,85.42
2019-03-04T14:04:11.123Z,84.95
2019-03-04T14:06:40.483Z,85.03
2019-03-04T14:09:10.370Z,84.11
2019-03-04T14:11:39.587Z,85.53
2019-03-04T14:14:08.862Z,84.15
2019-03-04T14:16:38.251Z,83.94
2019-03-04T14:19:07.560Z,84.07
2019-03-04T14:21:36.888Z,84.02
2019-03-04T14:24:06.226Z,83.93
2019-03-04T14:26:35.608Z,83.88
2019-03-04T14:29:04.886Z,83.54
2019-03-04T14:31:34.176Z,83.71
2019-03-04T14:34:03.424Z,83.49
2019-03-04T14:36:32.721Z,83.82
2019-03-04T14:39:02.329Z,83.54
2019-03-04T14:41:31.668Z,82.85
2019-03-04T14:44:00.992Z,82.80
2019-03-04T14:46:30.378Z,83.29
2019-03-04T14:48:59.616Z,83.87
2019-03-04T14:51:28.940Z,83.24
2019-03-04T14:53:58.192Z,82.65
2019-03-04T14:56:27.483Z,82.48
2019-03-04T14:59:10.210Z,82.50
2019-03-04T15:01:28.079Z,81.15
2019-03-04T15:03:57.432Z,80.55
2019-03-04T15:06:26.752Z,79.91
2019-03-04T15:08:56.208Z,80.26
2019-03-04T15:11:25.468Z,79.84
2019-03-04T15:13:54.689Z,78.93
2019-03-04T15:16:24.215Z,80.23
2019-03-04T15:18:53.570Z,81.82
2019-03-04T15:21:22.868Z,83.58
2019-03-04T15:23:52.359Z,83.75
2019-03-04T15:26:21.750Z,84.71
2019-03-04T15:28:51.029Z,84.49
2019-03-04T15:31:20.294Z,84.03
2019-03-04T15:33:49.568Z,84.29
2019-03-04T15:36:18.832Z,83.78
2019-03-04T15:38:48.329Z,83.53
2019-03-04T15:41:17.674Z,84.27
2019-03-04T15:43:46.964Z,83.78
2019-03-04T15:46:16.350Z,83.78
2019-03-04T15:48:45.659Z,83.48
2019-03-04T15:51:15.006Z,84.01
2019-03-04T15:53:44.386Z,82.99
2019-03-04T15:56:13.656Z,84.32
2019-03-04T15:58:42.869Z,84.78
2019-03-04T16:01:13.242Z,83.13
2019-03-04T16:03:42.550Z,82.59
2019-03-04T16:06:11.881Z,82.83
2019-03-04T16:08:41.369Z,82.58
2019-03-04T16:11:10.861Z,81.85
2019-03-04T16:13:40.236Z,82.44
2019-03-04T16:16:09.716Z,82.27
2019-03-04T16:18:39.058Z,81.69
2019-03-04T16:21:08.337Z,81.59
2019-03-04T16:23:37.622Z,80.90
2019-03-04T16:26:12.665Z,81.78
2019-03-04T16:28:42.552Z,81.78
2019-03-04T16:31:11.923Z,81.53
2019-03-04T16:33:41.255Z,81.31
2019-03-04T16:36:10.532Z,81.47
2019-03-04T16:38:39.805Z,81.81
2019-03-04T16:41:09.389Z,81.71
2019-03-04T16:43:38.644Z,81.48
2019-03-04T16:46:07.991Z,82.04
2019-03-04T16:48:37.304Z,82.23
2019-03-04T16:51:06.729Z,82.52
2019-03-04T16:53:36.202Z,82.43
2019-03-04T16:56:05.559Z,81.79
2019-03-04T16:58:36.298Z,82.75
2019-03-04T17:01:06.221Z,82.34
2019-03-04T17:03:35.594Z,81.97
2019-03-04T17:06:05.140Z,81.57
2019-03-04T17:08:34.407Z,82.30
2019-03-04T17:11:03.650Z,82.04
2019-03-04T17:13:32.918Z,81.32
2019-03-04T17:16:02.444Z,81.47
2019-03-04T17:18:31.739Z,81.71
2019-03-04T17:21:01.564Z,81.83
2019-03-04T17:23:30.892Z,82.38
2019-03-04T17:26:00.156Z,82.62
2019-03-04T17:28:29.426Z,81.99
2019-03-04T17:30:58.702Z,81.85
2019-03-04T17:33:28.023Z,81.68
2019-03-04T17:35:57.391Z,80.78
2019-03-04T17:38:26.694Z,81.97
2019-03-04T17:40:56.046Z,81.03
2019-03-04T17:43:25.652Z,81.00
2019-03-04T17:45:54.990Z,81.61
2019-03-04T17:48:24.291Z,81.37
2019-03-04T17:50:53.687Z,81.36
2019-03-04T17:53:22.944Z,81.56
2019-03-04T17:55:52.235Z,81.23
2019-03-04T17:58:21.688Z,81.55
2019-03-04T18:00:54.614Z,81.05
2019-03-04T18:03:24.114Z,81.14
2019-03-04T18:05:53.651Z,81.04
2019-03-04T18:08:22.888Z,81.31
2019-03-04T18:10:52.312Z,81.33
2019-03-04T18:13:21.611Z,81.10
2019-03-04T18:15:50.871Z,81.02
2019-03-04T18:18:20.200Z,81.31
2019-03-04T18:20:49.529Z,81.17
2019-03-04T18:23:18.823Z,81.30
2019-03-04T18:25:57.532Z,81.52
2019-03-04T18:29:02.017Z,81.40
2019-03-04T18:32:02.849Z,81.86
2019-03-04T18:34:43.172Z,81.81
2019-03-04T18:37:44.496Z,81.81
2019-03-04T18:40:51.191Z,81.98
2019-03-04T18:43:47.298Z,82.06
2019-03-04T18:47:00.582Z,82.25
2019-03-04T18:49:30.031Z,82.14
2019-03-04T18:51:59.392Z,82.15
2019-03-04T18:54:28.689Z,82.90
2019-03-04T18:56:58.139Z,82.97
2019-03-04T18:59:27.480Z,82.94
2019-03-04T19:01:56.797Z,83.65
2019-03-04T19:04:26.162Z,84.36
2019-03-04T19:06:55.431Z,84.49
2019-03-04T19:09:24.668Z,85.43
2019-03-04T19:11:54.058Z,86.20
2019-03-04T19:14:23.392Z,86.53
2019-03-04T19:16:52.929Z,86.79
2019-03-04T19:19:22.203Z,87.60
2019-03-04T19:21:51.520Z,87.63
2019-03-04T19:24:20.793Z,88.09
2019-03-04T19:26:50.030Z,87.88
2019-03-04T19:29:19.350Z,88.51
2019-03-04T19:31:48.772Z,88.32
2019-03-04T19:34:18.170Z,88.06
2019-03-04T19:36:47.640Z,88.42
2019-03-04T19:39:16.969Z,88.27
2019-03-04T19:41:46.436Z,88.24
2019-03-04T19:44:15.722Z,88.47
2019-03-04T19:46:45.023Z,87.75
2019-03-04T19:49:14.458Z,87.95
2019-03-04T19:51:43.776Z,87.43
2019-03-04T19:54:13.579Z,87.15
2019-03-04T19:56:42.909Z,88.04
2019-03-04T19:59:12.175Z,88.22
2019-03-04T20:01:41.546Z,88.07
2019-03-04T20:04:10.944Z,88.34
2019-03-04T20:06:40.312Z,87.97
2019-03-04T20:09:10.255Z,87.65
2019-03-04T20:11:39.511Z,88.34
2019-03-04T20:14:08.792Z,88.59
2019-03-04T20:16:38.049Z,88.80
2019-03-04T20:19:07.344Z,89.01
2019-03-04T20:21:36.692Z,89.35
2019-03-04T20:24:06.131Z,90.13
2019-03-04T20:26:35.642Z,89.77
2019-03-04T20:29:04.954Z,89.73
2019-03-04T20:31:34.192Z,90.06
2019-03-04T20:34:03.573Z,90.59
2019-03-04T20:36:32.888Z,90.76
2019-03-04T20:39:02.165Z,90.46
2019-03-04T20:41:31.491Z,89.97
2019-03-04T20:44:00.831Z,89.67
2019-03-04T20:46:30.152Z,89.87
2019-03-04T20:48:59.555Z,89.63
2019-03-04T20:51:28.831Z,89.46
2019-03-04T20:53:58.045Z,89.78
2019-03-04T20:56:27.403Z,89.45
2019-03-04T20:58:56.693Z,89.67
2019-03-04T21:01:26.212Z,89.85
2019-03-04T21:03:55.503Z,89.71
2019-03-04T21:06:24.762Z,90.34
2019-03-04T21:08:54.077Z,90.32
2019-03-04T21:11:23.374Z,89.98
2019-03-04T21:13:52.681Z,90.19
2019-03-04T21:16:22.028Z,90.01
2019-03-04T21:18:51.345Z,90.24
2019-03-04T21:21:20.688Z,89.99
2019-03-04T21:23:49.993Z,90.11
2019-03-04T21:26:27.727Z,90.40
2019-03-04T21:29:37.289Z,90.42
2019-03-04T21:32:21.253Z,90.60
2019-03-04T21:35:37.361Z,90.41
2019-03-04T21:38:06.815Z,90.34
2019-03-04T21:40:55.460Z,90.66
2019-03-04T21:43:29.871Z,90.94
2019-03-04T21:46:41.591Z,91.02
2019-03-04T21:49:13.057Z,90.55
2019-03-04T21:52:20.219Z,90.35
2019-03-04T21:54:43.793Z,90.56
2019-03-04T21:57:40.365Z,90.51
2019-03-04T22:00:14.150Z,90.21
2019-03-04T22:02:54.000Z,89.88
2019-03-04T22:05:23.395Z,89.96
2019-03-04T22:07:52.714Z,90.04
2019-03-04T22:10:22.065Z,89.79
2019-03-04T22:12:51.574Z,89.46
2019-03-04T22:15:20.916Z,89.60
2019-03-04T22:17:50.262Z,89.77
2019-03-04T22:20:19.750Z,89.81
2019-03-04T22:22:49.060Z,89.20
2019-03-04T22:25:18.309Z,89.07
2019-03-04T22:27:47.914Z,89.35
2019-03-04T22:30:17.604Z,89.53
2019-03-04T22:32:46.884Z,89.83
2019-03-04T22:35:17.435Z,90.27
2019-03-04T22:37:47.020Z,90.11
2019-03-04T22:40:17.895Z,90.05
2019-03-04T22:42:47.122Z,90.45
2019-03-04T22:45:17.632Z,90.37
2019-03-04T22:47:47.448Z,90.31
2019-03-04T22:50:17.278Z,90.53
2019-03-04T22:52:46.617Z,90.68
2019-03-04T22:55:18.422Z,90.76
2019-03-04T22:57:47.701Z,90.86
2019-03-04T23:01:16.177Z,90.33
2019-03-04T23:03:45.730Z,90.40
2019-03-04T23:06:19.723Z,90.48
2019-03-04T23:08:49.003Z,90.54
2019-03-04T23:11:19.132Z,90.19
2019-03-04T23:14:12.832Z,90.94
2019-03-04T23:16:42.094Z,90.78
2019-03-04T23:19:11.429Z,90.57
2019-03-04T23:21:40.782Z,90.25
2019-03-04T23:24:10.101Z,89.91
2019-03-04T23:26:39.390Z,89.74
2019-03-04T23:29:08.695Z,89.77
2019-03-04T23:31:38.015Z,89.58
2019-03-04T23:34:07.340Z,89.54
2019-03-04T23:36:36.921Z,89.74
2019-03-04T23:39:08.587Z,89.90
2019-03-04T23:41:38.135Z,89.54
2019-03-04T23:44:07.457Z,89.63
2019-03-04T23:46:36.752Z,89.41
2019-03-04T23:49:06.181Z,89.35
2019-03-04T23:51:35.491Z,89.94
2019-03-04T23:54:04.807Z,89.62
2019-03-04T23:56:34.312Z,89.23
2019-03-04T23:59:03.572Z,89.07
